Keokuk, IA

9:39 PM CDT on August 17, 2017 (GMT -0500)
Keokuk Municipal

Weather History for KEOK - May, 2014

Change the Weather History Date:

Thursday, May 1, 2014

  Actual Average Record
Temperature  
Mean Temperature 48 °F -  
Max Temperature 51 °F 70 °F 88 °F (1952)
Min Temperature 44 °F 47 °F 35 °F (1940)
Degree Days  
Heating Degree Days 18    
Moisture  
Dew Point 40 °F    
Average Humidity 76    
Maximum Humidity 87    
Minimum Humidity 66    
Precipitation  
Precipitation 0.00 in - - ()
Sea Level Pressure  
Sea Level Pressure 29.85 in    
Wind  
Wind Speed 14 mph (West)    
Max Wind Speed 18 mph    
Max Gust Speed 25 mph    
Visibility 10 miles    
Events Rain    
Averages and records for this station are not official NWS values.
T = Trace of Precipitation, MM = Missing Value Source: NWS Daily Summary

Daily Weather History Graph

Daily Weather History Graph

Search for Another Location

Airport or City:

Trip Planner

Search our weather history database for the weather conditions in past years. The results will help you decide how hot, cold, wet, or windy it might be!

Date:

Astronomy

May. 01, 2014 Rise Set
Actual Time 6:04 AM CDT 8:01 PM CDT
Civil Twilight 5:35 AM CDT 8:31 PM CDT
Nautical Twilight 4:59 AM CDT 9:07 PM CDT
Astronomical Twilight 4:20 AM CDT 9:46 PM CDT
Moon 7:52 AM CDT (5/1) 10:35 PM CDT (5/1)
Length of Visible Light 14h 55m
Length of Day
13h 56m
Waxing Crescent, 7% of the Moon is Illuminated
May 1
Waxing Crescent
May 6
First Quarter
May 14
Full
May 21
Last Quarter
May 28
New

Hourly Weather History & Observations

Time (CDT) Temp. Windchill Dew Point Humidity Pressure Visibility Wind Dir Wind Speed Gust Speed Precip Events Conditions
12:15 AM 44.6 °F 38.1 °F 41.0 °F 87% 29.82 in 10.0 mi West 13.8 mph 19.6 mph N/A   Overcast
12:35 AM 44.6 °F 37.4 °F 41.0 °F 87% 29.82 in 10.0 mi West 16.1 mph - N/A   Overcast
1:15 AM 44.6 °F 37.8 °F 41.0 °F 87% 29.82 in 10.0 mi WSW 15.0 mph - N/A   Overcast
1:35 AM 44.6 °F 37.8 °F 41.0 °F 87% 29.81 in 10.0 mi West 15.0 mph - N/A   Overcast
1:55 AM 44.6 °F 39.2 °F 41.0 °F 87% 29.81 in 10.0 mi WSW 10.4 mph 16.1 mph N/A   Overcast
2:15 AM 44.6 °F 38.1 °F 41.0 °F 87% 29.80 in 10.0 mi West 13.8 mph - N/A   Overcast
2:35 AM 44.6 °F 38.4 °F 41.0 °F 87% 29.80 in 10.0 mi WSW 12.7 mph - N/A   Overcast
2:55 AM 44.6 °F 38.8 °F 41.0 °F 87% 29.79 in 10.0 mi West 11.5 mph 19.6 mph N/A   Overcast
3:15 AM 44.6 °F 38.8 °F 41.0 °F 87% 29.79 in 10.0 mi WSW 11.5 mph - N/A   Overcast
3:35 AM 44.6 °F 37.4 °F 41.0 °F 87% 29.79 in 10.0 mi West 16.1 mph - N/A   Overcast
4:15 AM 44.6 °F 37.8 °F 41.0 °F 87% 29.79 in 10.0 mi West 15.0 mph - N/A   Overcast
4:35 AM 44.6 °F 37.8 °F 39.2 °F 81% 29.79 in 10.0 mi WSW 15.0 mph - N/A   Overcast
5:15 AM 44.6 °F 38.4 °F 39.2 °F 81% 29.78 in 10.0 mi WSW 12.7 mph 20.7 mph N/A   Overcast
5:35 AM 44.6 °F 38.4 °F 39.2 °F 81% 29.78 in 10.0 mi West 12.7 mph - N/A   Overcast
6:15 AM 44.6 °F 37.2 °F 39.2 °F 81% 29.79 in 10.0 mi West 17.3 mph - N/A   Overcast
6:35 AM 44.6 °F 38.1 °F 39.2 °F 81% 29.79 in 10.0 mi West 13.8 mph - N/A   Overcast
6:55 AM 44.6 °F 38.1 °F 39.2 °F 81% 29.79 in 10.0 mi West 13.8 mph - N/A   Overcast
7:15 AM 44.6 °F 38.8 °F 39.2 °F 81% 29.80 in 10.0 mi West 11.5 mph 17.3 mph N/A   Overcast
7:35 AM 44.6 °F 38.8 °F 39.2 °F 81% 29.80 in 10.0 mi West 11.5 mph - N/A   Overcast
7:55 AM 44.6 °F 37.4 °F 39.2 °F 81% 29.81 in 10.0 mi WSW 16.1 mph - N/A   Overcast
8:15 AM 44.6 °F 38.8 °F 39.2 °F 81% 29.81 in 10.0 mi West 11.5 mph - N/A   Overcast
8:35 AM 44.6 °F 37.4 °F 39.2 °F 81% 29.82 in 10.0 mi West 16.1 mph 23.0 mph N/A   Overcast
8:55 AM 44.6 °F 38.1 °F 39.2 °F 81% 29.82 in 10.0 mi West 13.8 mph - N/A   Overcast
9:15 AM 44.6 °F 38.4 °F 39.2 °F 81% 29.82 in 10.0 mi West 12.7 mph - N/A   Overcast
9:55 AM 46.4 °F 39.8 °F 39.2 °F 76% 29.83 in 10.0 mi West 16.1 mph 23.0 mph N/A   Overcast
10:15 AM 46.4 °F 41.1 °F 41.0 °F 81% 29.83 in 10.0 mi West 11.5 mph 21.9 mph N/A   Overcast
10:35 AM 46.4 °F 39.8 °F 39.2 °F 76% 29.83 in 10.0 mi West 16.1 mph 23.0 mph N/A   Overcast
10:55 AM 46.4 °F 40.4 °F 41.0 °F 81% 29.83 in 10.0 mi WSW 13.8 mph 19.6 mph N/A   Overcast
11:15 AM 46.4 °F 41.1 °F 41.0 °F 81% 29.84 in 10.0 mi West 11.5 mph 18.4 mph N/A   Overcast
11:35 AM 48.2 °F - 39.2 °F 71% 29.84 in 10.0 mi West 15.0 mph 21.9 mph N/A   Overcast
12:15 PM 48.2 °F - 39.2 °F 71% 29.84 in 10.0 mi West 13.8 mph 24.2 mph N/A   Overcast
12:35 PM 50.0 °F - 39.2 °F 66% 29.84 in 10.0 mi West 17.3 mph 24.2 mph N/A   Overcast
12:55 PM 50.0 °F - 39.2 °F 66% 29.84 in 10.0 mi WNW 17.3 mph - N/A   Overcast
1:15 PM 51.8 °F - 41.0 °F 67% 29.84 in 10.0 mi WNW 12.7 mph 18.4 mph N/A   Overcast
1:35 PM 51.8 °F - 41.0 °F 67% 29.85 in 10.0 mi West 13.8 mph 19.6 mph N/A   Overcast
1:55 PM 51.8 °F - 41.0 °F 67% 29.85 in 10.0 mi West 11.5 mph 20.7 mph N/A   Overcast
2:15 PM 50.0 °F - 39.2 °F 66% 29.85 in 10.0 mi WSW 16.1 mph 24.2 mph N/A   Overcast
2:35 PM 50.0 °F - 39.2 °F 66% 29.86 in 10.0 mi West 17.3 mph 23.0 mph N/A   Overcast
2:55 PM 50.0 °F - 39.2 °F 66% 29.86 in 10.0 mi WSW 13.8 mph 19.6 mph N/A   Overcast
3:15 PM 50.0 °F - 39.2 °F 66% 29.86 in 10.0 mi WSW 12.7 mph - N/A   Overcast
3:35 PM 50.0 °F - 39.2 °F 66% 29.86 in 10.0 mi West 15.0 mph - N/A   Overcast
3:55 PM 50.0 °F - 39.2 °F 66% 29.86 in 10.0 mi West 16.1 mph 25.3 mph N/A   Overcast
4:15 PM 50.0 °F - 39.2 °F 66% 29.86 in 10.0 mi West 15.0 mph 23.0 mph N/A   Overcast
5:15 PM 50.0 °F - 41.0 °F 71% 29.87 in 9.0 mi West 18.4 mph - N/A Rain Light Rain
5:35 PM 48.2 °F - 41.0 °F 76% 29.87 in 10.0 mi West 13.8 mph - N/A   Overcast
6:15 PM 50.0 °F - 41.0 °F 71% 29.88 in 10.0 mi West 11.5 mph - N/A   Overcast
6:35 PM 50.0 °F - 41.0 °F 71% 29.88 in 10.0 mi West 11.5 mph 17.3 mph N/A   Overcast
6:55 PM 50.0 °F - 39.2 °F 66% 29.89 in 10.0 mi West 16.1 mph - N/A   Overcast
7:15 PM 50.0 °F - 39.2 °F 66% 29.89 in 10.0 mi WNW 12.7 mph - N/A   Overcast
7:35 PM 48.2 °F - 39.2 °F 71% 29.90 in 10.0 mi West 11.5 mph 17.3 mph N/A   Overcast
7:55 PM 48.2 °F - 41.0 °F 76% 29.90 in 10.0 mi West 9.2 mph - N/A   Overcast
8:15 PM 48.2 °F - 39.2 °F 71% 29.90 in 10.0 mi West 10.4 mph - N/A   Overcast
8:35 PM 48.2 °F - 39.2 °F 71% 29.90 in 10.0 mi West 11.5 mph - N/A   Overcast
8:55 PM 48.2 °F - 39.2 °F 71% 29.91 in 10.0 mi West 9.2 mph 16.1 mph N/A   Overcast
9:15 PM 48.2 °F - 39.2 °F 71% 29.91 in - West 10.4 mph - N/A   Overcast
9:35 PM 48.2 °F - 39.2 °F 71% 29.92 in 10.0 mi West 10.4 mph - N/A   Overcast
9:55 PM 48.2 °F - 41.0 °F 76% 29.92 in 10.0 mi West 8.1 mph - N/A   Overcast
10:15 PM 48.2 °F - 41.0 °F 76% 29.92 in 10.0 mi West 10.4 mph - N/A   Overcast
10:35 PM 48.2 °F - 41.0 °F 76% 29.93 in 10.0 mi West 9.2 mph - N/A   Overcast
10:55 PM 48.2 °F - 41.0 °F 76% 29.93 in 10.0 mi West 9.2 mph - N/A   Overcast
11:15 PM 46.4 °F 42.4 °F 41.0 °F 81% 29.93 in 10.0 mi West 8.1 mph - N/A   Overcast
11:35 PM 46.4 °F 41.9 °F 41.0 °F 81% 29.93 in 10.0 mi West 9.2 mph - N/A   Overcast
11:55 PM 46.4 °F 42.4 °F 41.0 °F 81% 29.93 in 10.0 mi West 8.1 mph - N/A   Overcast